Time;durP1;ratioP1;P1;durP2;ratioP2;P2;SDS_P1;SDS_P2;PMS_P1;PMS_P2;Temp;Humidity;BMP_temperature;BMP_pressure;BME280_temperature;BME280_humidity;BME280_pressure;Samples;Min_cycle;Max_cycle;Signal;HPM_P1;HPM_P2
2021/05/19 00:00:13;;;;;;;13.00;3.20;;;;;;;;;;5014380;28;20481;-53
2021/05/19 00:02:40;;;;;;;6.33;3.87;;;;;;;;;;5014407;28;20018;-53
2021/05/19 00:05:07;;;;;;;7.67;4.50;;;;;;;;;;5014429;28;20025;-53
2021/05/19 00:07:34;;;;;;;8.17;3.63;;;;;;;;;;5014249;28;20104;-52
2021/05/19 00:10:00;;;;;;;5.60;3.27;;;;;;;;;;5014322;28;20030;-52
2021/05/19 00:12:27;;;;;;;5.57;3.00;;;;;;;;;;5014225;28;20369;-52
2021/05/19 00:14:54;;;;;;;6.83;3.23;;;;;;;;;;5014376;28;20130;-53
2021/05/19 00:17:21;;;;;;;7.73;3.80;;;;;;;;;;5014124;28;20029;-52
2021/05/19 00:19:47;;;;;;;5.67;3.77;;;;;;;;;;5014226;28;20507;-52
2021/05/19 00:22:14;;;;;;;5.60;2.90;;;;;;;;;;5014218;28;20034;-52
2021/05/19 00:24:41;;;;;;;5.00;2.87;;;;;;;;;;5014345;28;20041;-52
2021/05/19 00:27:08;;;;;;;5.40;2.33;;;;;;;;;;5014062;28;20029;-52
2021/05/19 00:29:34;;;;;;;6.07;2.47;;;;;;;;;;5013852;28;20018;-52
2021/05/19 00:32:01;;;;;;;2.73;1.77;;;;;;;;;;5013178;28;20076;-52
2021/05/19 00:34:28;;;;;;;4.90;2.20;;;;;;;;;;5013954;28;20038;-52
2021/05/19 00:36:55;;;;;;;8.30;2.53;;;;;;;;;;5013705;28;20489;-52
2021/05/19 00:39:22;;;;;;;3.97;1.93;;;;;;;;;;5013792;28;20022;-52
2021/05/19 00:41:48;;;;;;;3.70;2.10;;;;;;;;;;5013712;28;20117;-53
2021/05/19 00:44:18;;;;;;;3.97;2.20;;;;;;;;;;5014731;28;20133;-52
2021/05/19 00:46:46;;;;;;;5.67;2.07;;;;;;;;;;5013751;28;20101;-52
2021/05/19 00:49:13;;;;;;;7.97;1.87;;;;;;;;;;5013492;28;20437;-52
2021/05/19 00:51:40;;;;;;;3.70;2.33;;;;;;;;;;5013593;28;20040;-52
2021/05/19 00:54:08;;;;;;;5.07;2.80;;;;;;;;;;5013684;28;20030;-52
2021/05/19 00:56:35;;;;;;;3.57;2.27;;;;;;;;;;5013398;28;20034;-52
2021/05/19 00:59:03;;;;;;;3.20;2.23;;;;;;;;;;5013654;28;20029;-52
2021/05/19 01:01:37;;;;;;;3.10;2.43;;;;;;;;;;5013408;28;20018;-52
2021/05/19 01:04:04;;;;;;;3.60;2.05;;;;;;;;;;5013761;28;20026;-52
2021/05/19 01:06:40;;;;;;;4.67;2.33;;;;;;;;;;5013244;28;20057;-52
2021/05/19 01:09:49;;;;;;;6.33;2.57;;;;;;;;;;5013427;28;20112;-52
2021/05/19 01:11:57;;;;;;;3.20;1.80;;;;;;;;;;5002696;28;20078;-52
2021/05/19 01:14:23;;;;;;;3.23;2.17;;;;;;;;;;5013305;28;20376;-52
2021/05/19 01:16:50;;;;;;;4.53;2.60;;;;;;;;;;5013344;28;20026;-52
2021/05/19 01:19:19;;;;;;;5.23;2.33;;;;;;;;;;5013193;28;20022;-52
2021/05/19 01:21:50;;;;;;;5.97;2.30;;;;;;;;;;5013125;28;20029;-52
2021/05/19 01:24:17;;;;;;;4.27;2.23;;;;;;;;;;5013405;28;20049;-52
2021/05/19 01:26:44;;;;;;;5.10;2.40;;;;;;;;;;5013051;28;20029;-52
2021/05/19 01:29:11;;;;;;;5.13;3.03;;;;;;;;;;5012973;28;20018;-52
2021/05/19 01:31:38;;;;;;;5.47;2.43;;;;;;;;;;5012917;28;20547;-52
2021/05/19 01:34:05;;;;;;;7.67;2.77;;;;;;;;;;5013081;28;20032;-52
2021/05/19 01:36:31;;;;;;;3.47;2.10;;;;;;;;;;5012942;28;20120;-52
2021/05/19 01:38:58;;;;;;;4.67;2.53;;;;;;;;;;5012793;28;20113;-52
2021/05/19 01:41:25;;;;;;;3.63;2.70;;;;;;;;;;5012761;28;20030;-52
2021/05/19 01:43:52;;;;;;;4.90;2.90;;;;;;;;;;4996557;28;20046;-52
2021/05/19 01:46:25;;;;;;;10.90;2.77;;;;;;;;;;5012876;28;20100;-52
2021/05/19 01:48:56;;;;;;;9.47;3.27;;;;;;;;;;5013189;28;20477;-52
2021/05/19 01:51:23;;;;;;;5.53;2.77;;;;;;;;;;5012776;28;20298;-52
2021/05/19 01:53:49;;;;;;;5.13;2.90;;;;;;;;;;5012827;28;20034;-52
2021/05/19 01:56:16;;;;;;;7.57;3.03;;;;;;;;;;5012799;28;20030;-53
2021/05/19 01:58:43;;;;;;;7.30;3.10;;;;;;;;;;5012798;28;20026;-52
2021/05/19 02:01:10;;;;;;;4.90;2.30;;;;;;;;;;5012652;28;20445;-52
2021/05/19 02:03:37;;;;;;;5.80;3.20;;;;;;;;;;5012603;28;20030;-53
2021/05/19 02:06:03;;;;;;;5.13;2.43;;;;;;;;;;5012833;28;20516;-52
2021/05/19 02:08:30;;;;;;;3.77;2.70;;;;;;;;;;5012673;28;20098;-53
2021/05/19 02:10:57;;;;;;;5.73;2.70;;;;;;;;;;5012747;28;20038;-52
2021/05/19 02:13:24;;;;;;;4.63;2.50;;;;;;;;;;5012689;28;20030;-53
2021/05/19 02:15:50;;;;;;;8.03;4.00;;;;;;;;;;5012567;28;20030;-53
2021/05/19 02:18:17;;;;;;;4.17;2.53;;;;;;;;;;5012534;28;20022;-53
2021/05/19 02:20:44;;;;;;;9.50;3.37;;;;;;;;;;5012538;28;20465;-52
2021/05/19 02:23:11;;;;;;;7.93;3.17;;;;;;;;;;5012557;28;20030;-52
2021/05/19 02:25:38;;;;;;;10.60;3.30;;;;;;;;;;5012553;28;20026;-53
2021/05/19 02:28:05;;;;;;;4.27;2.37;;;;;;;;;;5012581;28;20022;-53
2021/05/19 02:39:42;;;;;;;6.70;3.77;;;;;;;;;;5012256;28;20032;-52
2021/05/19 02:42:09;;;;;;;9.07;4.50;;;;;;;;;;5012182;28;20037;-52
2021/05/19 02:44:36;;;;;;;7.37;4.60;;;;;;;;;;5013663;28;20073;-52
2021/05/19 02:47:03;;;;;;;8.33;4.30;;;;;;;;;;5012205;28;20034;-51
2021/05/19 02:49:30;;;;;;;7.10;3.73;;;;;;;;;;5012288;28;20413;-52
2021/05/19 02:51:57;;;;;;;6.87;3.90;;;;;;;;;;5012142;28;20029;-52
2021/05/19 02:54:24;;;;;;;6.90;4.33;;;;;;;;;;5013690;28;20477;-52
2021/05/19 02:56:51;;;;;;;5.33;3.30;;;;;;;;;;5015640;28;20080;-52
2021/05/19 02:59:18;;;;;;;7.20;4.00;;;;;;;;;;5015776;28;20022;-52
2021/05/19 03:01:45;;;;;;;10.20;4.27;;;;;;;;;;5015594;28;20421;-52
2021/05/19 03:04:12;;;;;;;7.57;4.03;;;;;;;;;;5015658;28;20484;-54
2021/05/19 03:06:39;;;;;;;5.13;3.50;;;;;;;;;;5015503;28;20539;-55
2021/05/19 03:09:06;;;;;;;14.57;3.50;;;;;;;;;;5015447;28;20100;-58
2021/05/19 03:11:33;;;;;;;5.30;3.00;;;;;;;;;;5015419;28;20504;-58
2021/05/19 03:14:00;;;;;;;7.00;3.77;;;;;;;;;;5015441;28;20116;-59
2021/05/19 03:16:27;;;;;;;8.03;2.70;;;;;;;;;;5015543;28;20531;-59
2021/05/19 03:18:54;;;;;;;9.30;2.17;;;;;;;;;;5015196;28;20030;-58
2021/05/19 03:21:21;;;;;;;5.63;2.07;;;;;;;;;;5015253;28;20559;-56
2021/05/19 03:23:48;;;;;;;5.87;1.87;;;;;;;;;;4997702;28;20022;-57
2021/05/19 03:26:15;;;;;;;6.67;2.17;;;;;;;;;;5015209;28;20118;-57
2021/05/19 03:28:42;;;;;;;4.17;1.73;;;;;;;;;;5014945;28;20030;-57
2021/05/19 03:31:09;;;;;;;5.83;1.90;;;;;;;;;;5015133;28;20097;-57
2021/05/19 03:33:36;;;;;;;6.27;2.43;;;;;;;;;;5014866;28;20040;-58
2021/05/19 03:36:05;;;;;;;7.90;2.60;;;;;;;;;;5014958;28;20026;-58
2021/05/19 03:38:32;;;;;;;9.77;2.87;;;;;;;;;;5014772;28;20581;-60
2021/05/19 03:40:59;;;;;;;14.83;3.90;;;;;;;;;;5014933;28;20064;-63
2021/05/19 03:43:26;;;;;;;12.77;4.43;;;;;;;;;;5015898;28;20069;-58
2021/05/19 03:45:58;;;;;;;15.87;4.27;;;;;;;;;;5014802;28;20046;-57
2021/05/19 03:48:25;;;;;;;10.53;4.50;;;;;;;;;;5014661;28;20358;-58
2021/05/19 03:50:52;;;;;;;8.47;3.80;;;;;;;;;;5014899;28;20041;-59
2021/05/19 03:53:19;;;;;;;8.17;3.83;;;;;;;;;;5014575;28;20384;-58
2021/05/19 03:55:46;;;;;;;9.17;3.30;;;;;;;;;;5014764;28;20037;-57
2021/05/19 03:58:14;;;;;;;5.23;3.13;;;;;;;;;;5014681;28;20477;-57
2021/05/19 04:00:41;;;;;;;9.80;2.93;;;;;;;;;;5014418;28;20065;-57
2021/05/19 04:03:08;;;;;;;4.50;2.37;;;;;;;;;;5014208;28;20069;-54
2021/05/19 04:05:36;;;;;;;4.13;2.30;;;;;;;;;;5014181;28;20029;-53
2021/05/19 04:08:04;;;;;;;5.00;1.80;;;;;;;;;;5014612;28;20037;-52
2021/05/19 04:10:31;;;;;;;3.00;2.17;;;;;;;;;;5014389;28;20034;-52
2021/05/19 04:12:58;;;;;;;3.87;2.27;;;;;;;;;;5014257;28;20041;-52
2021/05/19 04:15:25;;;;;;;3.80;1.67;;;;;;;;;;5014247;28;20389;-51
2021/05/19 04:17:53;;;;;;;2.93;1.70;;;;;;;;;;5013926;28;20036;-51
2021/05/19 04:20:20;;;;;;;2.93;1.73;;;;;;;;;;5014272;28;20021;-51
2021/05/19 04:22:47;;;;;;;3.07;2.13;;;;;;;;;;5013970;28;20120;-52
2021/05/19 04:25:15;;;;;;;6.90;2.00;;;;;;;;;;5014028;28;20377;-52
2021/05/19 04:27:42;;;;;;;3.93;2.10;;;;;;;;;;5013837;28;20041;-52
2021/05/19 04:30:09;;;;;;;3.50;1.93;;;;;;;;;;5014044;28;20065;-51
2021/05/19 04:32:36;;;;;;;4.93;2.60;;;;;;;;;;5014006;28;20030;-51
2021/05/19 04:35:04;;;;;;;7.37;2.50;;;;;;;;;;5013766;28;20509;-52
2021/05/19 04:37:31;;;;;;;5.43;2.53;;;;;;;;;;5013637;28;20038;-51
2021/05/19 04:39:57;;;;;;;8.53;3.20;;;;;;;;;;5013734;28;20057;-52
2021/05/19 04:42:26;;;;;;;6.17;3.13;;;;;;;;;;5013882;28;20037;-51
2021/05/19 04:44:53;;;;;;;7.20;3.53;;;;;;;;;;5015544;28;20382;-51
2021/05/19 04:47:20;;;;;;;8.50;2.80;;;;;;;;;;5013663;28;20289;-52
2021/05/19 04:49:47;;;;;;;9.07;2.97;;;;;;;;;;5013375;28;20101;-52
2021/05/19 04:52:13;;;;;;;8.37;2.67;;;;;;;;;;5013722;28;20030;-52
2021/05/19 04:54:40;;;;;;;4.63;2.13;;;;;;;;;;5013505;28;20114;-52
2021/05/19 04:57:07;;;;;;;5.23;2.93;;;;;;;;;;5013532;28;20184;-51
2021/05/19 04:59:34;;;;;;;6.83;2.80;;;;;;;;;;5013546;28;20376;-52
2021/05/19 05:02:01;;;;;;;4.90;2.70;;;;;;;;;;5013573;28;20030;-52
2021/05/19 05:04:28;;;;;;;4.43;2.60;;;;;;;;;;5013256;28;20160;-51
2021/05/19 05:06:54;;;;;;;8.43;2.80;;;;;;;;;;5013352;28;20457;-51
2021/05/19 05:09:21;;;;;;;4.23;2.57;;;;;;;;;;5013633;28;20034;-51
2021/05/19 05:11:48;;;;;;;5.37;2.70;;;;;;;;;;5013258;28;20036;-51
2021/05/19 05:14:15;;;;;;;3.90;2.20;;;;;;;;;;5013314;28;20030;-51
2021/05/19 05:16:41;;;;;;;6.43;2.60;;;;;;;;;;5012847;28;20036;-51
2021/05/19 05:19:08;;;;;;;4.23;2.57;;;;;;;;;;5013189;28;20076;-52
2021/05/19 05:21:35;;;;;;;6.07;2.40;;;;;;;;;;5013044;28;20030;-51
2021/05/19 05:24:02;;;;;;;5.20;2.10;;;;;;;;;;5013110;28;20037;-52
2021/05/19 05:26:29;;;;;;;9.10;3.87;;;;;;;;;;5013130;28;20112;-51
2021/05/19 05:28:56;;;;;;;3.37;2.60;;;;;;;;;;5012983;28;20026;-51
2021/05/19 05:31:23;;;;;;;5.13;3.17;;;;;;;;;;5012816;28;20041;-51
2021/05/19 05:33:50;;;;;;;6.17;2.60;;;;;;;;;;5012890;28;20061;-51
2021/05/19 05:36:18;;;;;;;4.57;2.60;;;;;;;;;;5013030;28;20385;-51
2021/05/19 05:38:45;;;;;;;5.83;2.70;;;;;;;;;;5012515;28;20037;-51
2021/05/19 05:41:12;;;;;;;5.87;2.50;;;;;;;;;;5012703;28;20064;-51
2021/05/19 05:43:38;;;;;;;5.23;2.70;;;;;;;;;;5014825;28;20068;-51
2021/05/19 05:46:06;;;;;;;4.80;2.50;;;;;;;;;;5012742;28;20401;-51
2021/05/19 05:48:32;;;;;;;4.73;2.63;;;;;;;;;;5012827;28;20072;-51
2021/05/19 05:51:01;;;;;;;3.87;2.23;;;;;;;;;;5012914;28;20038;-51
2021/05/19 05:53:28;;;;;;;5.20;2.93;;;;;;;;;;5012798;28;20380;-51
2021/05/19 05:55:55;;;;;;;3.93;2.40;;;;;;;;;;5012676;28;20495;-51
2021/05/19 05:58:21;;;;;;;5.93;2.57;;;;;;;;;;5012601;28;20025;-51
2021/05/19 06:00:48;;;;;;;6.03;3.07;;;;;;;;;;5012730;28;20366;-51
2021/05/19 06:03:15;;;;;;;6.03;2.60;;;;;;;;;;4995127;28;20366;-51
2021/05/19 06:05:42;;;;;;;4.73;2.73;;;;;;;;;;5012818;28;20054;-51
2021/05/19 06:08:09;;;;;;;7.17;3.00;;;;;;;;;;5012663;28;20048;-51
2021/05/19 06:10:36;;;;;;;5.53;3.20;;;;;;;;;;5012546;28;20088;-51
2021/05/19 06:13:03;;;;;;;5.03;2.43;;;;;;;;;;5012669;28;20034;-51
2021/05/19 06:15:29;;;;;;;5.73;3.33;;;;;;;;;;5012679;28;20072;-51
2021/05/19 06:17:57;;;;;;;5.70;2.83;;;;;;;;;;5012566;28;20544;-51
2021/05/19 06:20:24;;;;;;;4.50;2.63;;;;;;;;;;5012666;28;20033;-51
2021/05/19 06:22:50;;;;;;;5.27;2.70;;;;;;;;;;5012549;28;20033;-52
2021/05/19 06:25:17;;;;;;;5.87;2.70;;;;;;;;;;5012645;28;20061;-51
2021/05/19 06:27:44;;;;;;;4.83;2.33;;;;;;;;;;5012589;28;20057;-51
2021/05/19 06:30:11;;;;;;;5.20;2.33;;;;;;;;;;5015288;28;20041;-51
2021/05/19 06:32:38;;;;;;;4.90;3.07;;;;;;;;;;5016231;28;20389;-51
2021/05/19 06:35:05;;;;;;;7.73;3.03;;;;;;;;;;5016150;28;20033;-51
2021/05/19 06:37:32;;;;;;;4.50;2.70;;;;;;;;;;5016049;28;20064;-51
2021/05/19 06:39:59;;;;;;;5.00;2.50;;;;;;;;;;5016025;28;20038;-51
2021/05/19 06:42:25;;;;;;;6.77;3.30;;;;;;;;;;5016288;28;20038;-51
2021/05/19 06:44:52;;;;;;;6.43;3.37;;;;;;;;;;5017755;28;20049;-51
2021/05/19 06:47:19;;;;;;;8.60;3.73;;;;;;;;;;5016048;28;20029;-51
2021/05/19 06:49:46;;;;;;;5.30;3.60;;;;;;;;;;5015888;28;20503;-51
2021/05/19 06:52:13;;;;;;;5.73;3.47;;;;;;;;;;5016011;28;20038;-51
2021/05/19 06:54:39;;;;;;;8.37;3.90;;;;;;;;;;5015943;28;20049;-51
2021/05/19 06:57:06;;;;;;;4.60;3.20;;;;;;;;;;5015695;28;20452;-51
2021/05/19 06:59:33;;;;;;;6.73;2.97;;;;;;;;;;5016012;28;20022;-51
2021/05/19 07:02:00;;;;;;;5.23;3.10;;;;;;;;;;5015582;28;20375;-51
2021/05/19 07:04:27;;;;;;;6.27;3.20;;;;;;;;;;5015690;28;20037;-51
2021/05/19 07:06:53;;;;;;;4.70;2.80;;;;;;;;;;5015683;28;20133;-51
2021/05/19 07:09:20;;;;;;;6.57;2.90;;;;;;;;;;5015687;28;20029;-50
2021/05/19 07:11:47;;;;;;;3.53;2.00;;;;;;;;;;5015519;28;20073;-51
2021/05/19 07:14:17;;;;;;;4.77;2.53;;;;;;;;;;5015581;28;20385;-51
2021/05/19 07:16:51;;;;;;;4.07;2.60;;;;;;;;;;5015388;28;20057;-51
2021/05/19 07:19:18;;;;;;;5.27;2.40;;;;;;;;;;5015535;28;20021;-51
2021/05/19 07:21:45;;;;;;;6.03;2.93;;;;;;;;;;5015581;28;20038;-50
2021/05/19 07:24:12;;;;;;;6.07;3.00;;;;;;;;;;5015410;28;20026;-51
2021/05/19 07:26:40;;;;;;;6.80;2.70;;;;;;;;;;5015248;28;20122;-51
2021/05/19 07:29:07;;;;;;;4.70;2.70;;;;;;;;;;5015148;28;20077;-51
2021/05/19 07:31:34;;;;;;;5.13;3.30;;;;;;;;;;5015106;28;20030;-51
2021/05/19 07:34:01;;;;;;;8.60;3.80;;;;;;;;;;5015003;28;20092;-51
2021/05/19 07:36:28;;;;;;;5.97;3.60;;;;;;;;;;5015022;28;20022;-51
2021/05/19 07:38:55;;;;;;;7.80;5.03;;;;;;;;;;5014945;28;20081;-51
2021/05/19 07:41:23;;;;;;;6.27;4.07;;;;;;;;;;5014454;28;20092;-51
2021/05/19 07:43:50;;;;;;;5.90;4.10;;;;;;;;;;5016556;28;20034;-52
2021/05/19 07:46:17;;;;;;;4.53;3.33;;;;;;;;;;5014748;28;20030;-51
2021/05/19 07:48:44;;;;;;;4.43;3.17;;;;;;;;;;5014838;28;20053;-51
2021/05/19 07:51:11;;;;;;;4.70;2.87;;;;;;;;;;5014586;28;20038;-51
2021/05/19 07:53:38;;;;;;;6.97;3.20;;;;;;;;;;5014839;28;20032;-51
2021/05/19 07:56:14;;;;;;;4.97;2.90;;;;;;;;;;5014651;28;20025;-51
2021/05/19 07:59:03;;;;;;;5.30;3.07;;;;;;;;;;5014554;28;20030;-50
2021/05/19 08:03:57;;;;;;;5.43;3.00;;;;;;;;;;5014612;28;20080;-51
2021/05/19 08:06:24;;;;;;;9.17;3.10;;;;;;;;;;5014499;28;20026;-51
2021/05/19 08:08:51;;;;;;;5.73;2.93;;;;;;;;;;5014394;28;20104;-50
2021/05/19 08:11:17;;;;;;;3.63;2.70;;;;;;;;;;5014443;28;20033;-51
2021/05/19 08:13:47;;;;;;;5.40;3.20;;;;;;;;;;5014451;28;20466;-51
2021/05/19 08:16:14;;;;;;;3.80;2.20;;;;;;;;;;5014443;28;20025;-51
2021/05/19 08:18:41;;;;;;;3.70;2.60;;;;;;;;;;5014111;28;20030;-50
2021/05/19 08:21:08;;;;;;;5.93;2.47;;;;;;;;;;5014101;28;20033;-51
2021/05/19 08:23:35;;;;;;;4.73;2.90;;;;;;;;;;5014090;28;20421;-51
2021/05/19 08:26:03;;;;;;;5.67;2.63;;;;;;;;;;5014192;28;20025;-51
2021/05/19 08:28:32;;;;;;;3.57;2.40;;;;;;;;;;5014324;28;20101;-50
2021/05/19 08:30:59;;;;;;;5.73;3.27;;;;;;;;;;5014029;28;20121;-51
2021/05/19 08:33:25;;;;;;;4.50;2.60;;;;;;;;;;5013924;28;20024;-51
2021/05/19 08:35:52;;;;;;;3.90;2.70;;;;;;;;;;5013896;28;20025;-51
2021/05/19 08:38:19;;;;;;;3.93;2.47;;;;;;;;;;5013719;28;20469;-51
2021/05/19 08:40:46;;;;;;;3.50;2.30;;;;;;;;;;5013928;28;20485;-51
2021/05/19 08:43:13;;;;;;;4.30;2.80;;;;;;;;;;5013871;28;20049;-51
2021/05/19 08:45:40;;;;;;;4.33;2.40;;;;;;;;;;5015470;28;20068;-49
2021/05/19 08:48:08;;;;;;;3.70;2.23;;;;;;;;;;5013642;28;20030;-50
2021/05/19 08:50:36;;;;;;;3.67;2.37;;;;;;;;;;5013881;28;20050;-51
2021/05/19 08:53:06;;;;;;;4.73;2.70;;;;;;;;;;5012967;28;20026;-51
2021/05/19 08:55:33;;;;;;;4.20;2.33;;;;;;;;;;5013592;28;20159;-50
2021/05/19 08:58:00;;;;;;;4.50;3.00;;;;;;;;;;5013456;28;20026;-50
2021/05/19 09:00:28;;;;;;;5.93;2.90;;;;;;;;;;5013428;28;20054;-51
2021/05/19 09:03:07;;;;;;;6.03;2.67;;;;;;;;;;5013487;28;20108;-51
2021/05/19 09:05:35;;;;;;;7.60;2.90;;;;;;;;;;5013520;28;20054;-51
2021/05/19 09:08:05;;;;;;;4.10;2.47;;;;;;;;;;5013489;28;20029;-51
2021/05/19 09:10:32;;;;;;;4.67;2.87;;;;;;;;;;5013161;28;20396;-50
2021/05/19 09:12:59;;;;;;;5.60;3.30;;;;;;;;;;5013229;28;20033;-51
2021/05/19 09:15:45;;;;;;;6.33;3.57;;;;;;;;;;5013490;28;20026;-50
2021/05/19 09:18:12;;;;;;;8.30;3.10;;;;;;;;;;5013283;28;20041;-51
2021/05/19 09:20:48;;;;;;;6.97;3.57;;;;;;;;;;5013278;28;20026;-51
2021/05/19 09:23:22;;;;;;;8.17;4.20;;;;;;;;;;5013240;28;20018;-51
2021/05/19 09:26:12;;;;;;;6.30;4.07;;;;;;;;;;5013436;28;20036;-51
2021/05/19 09:28:38;;;;;;;9.73;4.50;;;;;;;;;;5013082;28;20110;-50
2021/05/19 09:31:19;;;;;;;5.97;4.60;;;;;;;;;;5012949;28;20038;-51
2021/05/19 09:33:46;;;;;;;6.30;4.80;;;;;;;;;;5013194;28;20100;-51
2021/05/19 09:36:20;;;;;;;9.83;4.50;;;;;;;;;;5012954;28;20380;-51
2021/05/19 09:38:49;;;;;;;7.37;4.73;;;;;;;;;;5005144;28;20034;-51
2021/05/19 09:41:24;;;;;;;7.70;4.57;;;;;;;;;;5012928;28;20376;-51
2021/05/19 09:43:54;;;;;;;11.67;5.43;;;;;;;;;;5012945;28;20041;-51
2021/05/19 09:46:42;;;;;;;7.47;4.43;;;;;;;;;;5014671;28;20104;-51
2021/05/19 09:49:12;;;;;;;11.13;5.47;;;;;;;;;;5012513;28;20085;-51
2021/05/19 09:51:39;;;;;;;8.43;5.00;;;;;;;;;;5012834;28;20137;-50
2021/05/19 09:54:06;;;;;;;9.90;5.13;;;;;;;;;;5012900;28;20030;-51
2021/05/19 09:56:34;;;;;;;6.33;5.10;;;;;;;;;;5012822;28;20081;-50
2021/05/19 09:59:00;;;;;;;6.57;4.50;;;;;;;;;;5012813;28;20029;-51
2021/05/19 10:01:27;;;;;;;7.33;4.40;;;;;;;;;;5012840;28;20026;-51
2021/05/19 10:03:54;;;;;;;6.37;4.70;;;;;;;;;;5015322;28;20030;-51
2021/05/19 10:06:27;;;;;;;6.10;4.53;;;;;;;;;;5016540;28;20029;-51
2021/05/19 10:08:54;;;;;;;6.07;4.10;;;;;;;;;;5016739;28;20022;-51
2021/05/19 10:11:21;;;;;;;7.80;3.87;;;;;;;;;;5016552;28;20065;-50
2021/05/19 10:13:48;;;;;;;5.47;3.70;;;;;;;;;;5016847;28;20026;-51
2021/05/19 10:16:16;;;;;;;5.73;3.90;;;;;;;;;;5016632;28;20034;-51
2021/05/19 10:18:52;;;;;;;10.33;5.47;;;;;;;;;;5016586;28;20101;-51
2021/05/19 10:21:20;;;;;;;5.23;3.80;;;;;;;;;;5016406;28;20091;-50
2021/05/19 10:24:07;;;;;;;6.17;4.73;;;;;;;;;;5016384;28;20030;-51
2021/05/19 10:26:59;;;;;;;5.60;3.53;;;;;;;;;;5016350;28;20504;-50
2021/05/19 10:29:44;;;;;;;6.43;3.83;;;;;;;;;;5016269;28;20030;-51
2021/05/19 10:32:33;;;;;;;6.35;4.18;;;;;;;;;;5016231;28;20034;-51
2021/05/19 10:35:02;;;;;;;6.53;3.67;;;;;;;;;;5016212;28;20038;-53
2021/05/19 10:37:29;;;;;;;7.70;4.50;;;;;;;;;;5016019;28;20049;-51
2021/05/19 10:40:16;;;;;;;7.80;4.30;;;;;;;;;;5016154;28;20499;-51
2021/05/19 10:42:59;;;;;;;5.57;3.67;;;;;;;;;;5002880;28;20396;-51
2021/05/19 10:45:26;;;;;;;7.97;3.67;;;;;;;;;;5017777;28;20061;-51
2021/05/19 10:47:53;;;;;;;7.63;3.97;;;;;;;;;;5015953;28;20104;-51
2021/05/19 10:50:29;;;;;;;10.03;4.50;;;;;;;;;;5015766;28;20037;-51
2021/05/19 10:58:31;;;;;;;6.50;4.15;;;;;;;;;;5016174;28;20817;-50
2021/05/19 11:00:58;;;;;;;7.23;3.57;;;;;;;;;;5015739;28;20022;-51
2021/05/19 11:03:25;;;;;;;6.70;4.40;;;;;;;;;;5015623;28;20202;-51
2021/05/19 11:05:51;;;;;;;5.60;4.10;;;;;;;;;;5015615;28;20022;-51
2021/05/19 11:08:28;;;;;;;8.13;3.93;;;;;;;;;;5015517;28;20603;-51
2021/05/19 11:11:15;;;;;;;8.87;4.20;;;;;;;;;;5015408;28;20485;-51
2021/05/19 11:14:02;;;;;;;6.80;3.87;;;;;;;;;;5015512;28;20346;-51
2021/05/19 11:16:43;;;;;;;5.97;3.70;;;;;;;;;;5014901;28;20262;-51
2021/05/19 11:19:19;;;;;;;5.50;3.70;;;;;;;;;;5015371;28;20778;-51
2021/05/19 11:21:46;;;;;;;7.83;4.33;;;;;;;;;;5015260;28;20113;-51
2021/05/19 11:24:14;;;;;;;7.20;3.90;;;;;;;;;;5015318;28;20252;-51
2021/05/19 11:26:45;;;;;;;9.43;4.83;;;;;;;;;;5015180;28;20689;-51
2021/05/19 11:29:13;;;;;;;6.93;4.00;;;;;;;;;;5015283;28;20081;-51
2021/05/19 11:31:43;;;;;;;5.07;3.53;;;;;;;;;;5015095;28;20030;-50
2021/05/19 11:34:10;;;;;;;6.13;4.30;;;;;;;;;;5015215;28;20802;-51
2021/05/19 11:36:42;;;;;;;8.77;4.63;;;;;;;;;;5015029;28;20255;-51
2021/05/19 11:39:27;;;;;;;6.73;4.63;;;;;;;;;;5014864;28;20033;-51
2021/05/19 11:41:55;;;;;;;5.95;3.53;;;;;;;;;;5014929;28;20256;-50
2021/05/19 11:44:31;;;;;;;6.47;4.50;;;;;;;;;;5016617;28;20117;-51
2021/05/19 11:46:58;;;;;;;6.70;4.90;;;;;;;;;;5014963;28;20244;-51
2021/05/19 11:49:25;;;;;;;8.97;4.83;;;;;;;;;;5014759;28;20037;-51
2021/05/19 11:51:51;;;;;;;9.27;4.83;;;;;;;;;;5014848;28;20034;-51
2021/05/19 11:54:18;;;;;;;6.67;4.73;;;;;;;;;;5014830;28;20734;-51
2021/05/19 11:56:46;;;;;;;6.00;4.60;;;;;;;;;;5014732;28;20338;-51
2021/05/19 11:59:25;;;;;;;15.63;5.13;;;;;;;;;;5014601;28;20271;-50
2021/05/19 12:02:00;;;;;;;6.67;4.50;;;;;;;;;;5014610;28;20255;-51
2021/05/19 12:04:28;;;;;;;8.68;4.97;;;;;;;;;;5014517;28;20691;-51
2021/05/19 12:06:55;;;;;;;8.93;5.20;;;;;;;;;;5014501;28;20033;-50
2021/05/19 12:09:22;;;;;;;6.10;4.50;;;;;;;;;;5014359;28;20256;-51
2021/05/19 12:11:50;;;;;;;7.00;4.50;;;;;;;;;;5014275;28;20631;-51
2021/05/19 12:14:18;;;;;;;5.70;4.20;;;;;;;;;;5014403;28;20258;-51
2021/05/19 12:16:46;;;;;;;11.07;4.90;;;;;;;;;;5014269;28;20260;-50
2021/05/19 12:19:17;;;;;;;5.70;4.73;;;;;;;;;;5014220;28;20259;-51
2021/05/19 12:21:45;;;;;;;7.57;4.87;;;;;;;;;;5014135;28;20334;-51
2021/05/19 12:24:14;;;;;;;9.10;5.30;;;;;;;;;;5014199;28;20248;-51
2021/05/19 12:26:48;;;;;;;7.77;5.83;;;;;;;;;;5014138;28;20265;-51
2021/05/19 12:29:33;;;;;;;8.80;5.60;;;;;;;;;;5013932;28;20291;-51
2021/05/19 12:32:18;;;;;;;7.72;5.10;;;;;;;;;;5013887;28;20283;-50
2021/05/19 12:34:58;;;;;;;12.40;5.50;;;;;;;;;;5014012;28;20377;-51
2021/05/19 12:37:37;;;;;;;7.77;5.63;;;;;;;;;;5013883;28;20026;-51
2021/05/19 12:40:05;;;;;;;8.17;4.70;;;;;;;;;;5013777;28;20259;-51
2021/05/19 12:42:39;;;;;;;7.30;5.03;;;;;;;;;;5014088;28;20650;-51
2021/05/19 12:45:06;;;;;;;8.97;5.97;;;;;;;;;;5015626;28;20299;-51
2021/05/19 12:47:33;;;;;;;12.63;7.10;;;;;;;;;;5013694;28;20252;-51
2021/05/19 12:50:03;;;;;;;11.80;7.60;;;;;;;;;;5013677;28;20354;-51
2021/05/19 12:52:31;;;;;;;10.77;7.47;;;;;;;;;;5013748;28;20283;-51
2021/05/19 12:54:58;;;;;;;10.47;7.50;;;;;;;;;;5013592;28;20267;-52
2021/05/19 12:57:27;;;;;;;10.87;7.40;;;;;;;;;;5013458;28;20270;-51
2021/05/19 12:59:57;;;;;;;8.50;6.80;;;;;;;;;;5013495;28;20256;-51
2021/05/19 13:02:27;;;;;;;8.87;6.40;;;;;;;;;;5013436;28;20257;-51
2021/05/19 13:05:04;;;;;;;7.73;5.70;;;;;;;;;;5013284;28;20094;-51
2021/05/19 13:07:49;;;;;;;10.63;6.17;;;;;;;;;;5012172;28;20519;-51
2021/05/19 13:10:23;;;;;;;14.88;7.25;;;;;;;;;;5012027;28;20089;-51
2021/05/19 13:13:07;;;;;;;8.87;5.80;;;;;;;;;;5012938;28;20125;-52
2021/05/19 13:15:40;;;;;;;8.23;5.80;;;;;;;;;;5012828;28;20037;-51
2021/05/19 13:23:48;;;;;;;5.25;4.25;;;;;;;;;;5012854;28;20061;-51
2021/05/19 13:26:22;;;;;;;9.10;5.03;;;;;;;;;;5013243;28;20033;-51
2021/05/19 13:28:56;;;;;;;5.53;4.53;;;;;;;;;;5005558;28;20042;-51
2021/05/19 13:31:32;;;;;;;8.03;5.93;;;;;;;;;;5013389;28;20030;-50
2021/05/19 13:34:06;;;;;;;10.00;5.23;;;;;;;;;;5012684;28;20168;-51
2021/05/19 13:36:42;;;;;;;5.97;4.25;;;;;;;;;;5012946;28;20061;-51
2021/05/19 13:39:15;;;;;;;;;;;;;;;;;;5012896;28;20038;-52
2021/05/19 13:41:57;;;;;;;7.53;5.30;;;;;;;;;;5013031;28;20127;-51
2021/05/19 13:44:33;;;;;;;9.03;6.03;;;;;;;;;;5011850;28;20057;-51
2021/05/19 13:47:02;;;;;;;7.80;6.67;;;;;;;;;;4993001;28;20532;-51
2021/05/19 13:49:33;;;;;;;10.90;6.20;;;;;;;;;;4993223;28;20030;-51
2021/05/19 13:52:05;;;;;;;7.83;5.00;;;;;;;;;;4991930;28;20122;-52
2021/05/19 13:54:33;;;;;;;10.30;4.93;;;;;;;;;;4993309;28;20018;-51
2021/05/19 13:57:00;;;;;;;7.80;5.10;;;;;;;;;;4993074;28;20034;-51
2021/05/19 13:59:26;;;;;;;8.47;5.60;;;;;;;;;;4993144;28;20105;-51
2021/05/19 14:01:54;;;;;;;6.73;5.17;;;;;;;;;;4993323;28;20034;-51
2021/05/19 14:04:21;;;;;;;8.97;5.93;;;;;;;;;;4993261;28;20027;-51
2021/05/19 14:06:48;;;;;;;6.70;4.97;;;;;;;;;;4993144;28;20030;-52
2021/05/19 14:09:16;;;;;;;7.03;4.53;;;;;;;;;;4993193;28;20030;-51
2021/05/19 14:28:05;;;;;;;;;;;;;;;;;;4993735;28;20117;-52
2021/05/19 14:30:33;;;;;;;7.83;4.17;;;;;;;;;;4992880;28;19913;-51
2021/05/19 14:32:59;;;;;;;8.80;4.87;;;;;;;;;;4993017;28;20031;-52
2021/05/19 14:54:06;;;;;;;9.37;5.77;;;;;;;;;;5016046;28;20088;-52
2021/05/19 15:01:45;;;;;;;7.23;6.23;;;;;;;;;;5015837;28;20038;-52
2021/05/19 15:04:12;;;;;;;8.63;5.83;;;;;;;;;;5015743;28;20026;-52
2021/05/19 15:06:39;;;;;;;11.73;6.23;;;;;;;;;;5015592;28;20104;-52
2021/05/19 15:09:10;;;;;;;10.27;6.43;;;;;;;;;;5015574;28;20469;-52
2021/05/19 15:11:37;;;;;;;6.83;5.57;;;;;;;;;;5015427;28;20068;-52
2021/05/19 15:14:05;;;;;;;7.83;5.97;;;;;;;;;;5015503;28;20101;-52
2021/05/19 15:16:32;;;;;;;7.30;5.60;;;;;;;;;;5015689;28;20026;-52
2021/05/19 15:18:59;;;;;;;6.80;5.43;;;;;;;;;;4997909;28;20034;-52
2021/05/19 15:21:26;;;;;;;8.47;7.07;;;;;;;;;;5015493;28;20018;-52
2021/05/19 15:23:53;;;;;;;7.93;6.50;;;;;;;;;;5015285;28;20033;-52
2021/05/19 15:26:20;;;;;;;7.67;6.50;;;;;;;;;;5015357;28;20034;-52
2021/05/19 15:28:47;;;;;;;9.63;6.53;;;;;;;;;;5015131;28;20034;-52
2021/05/19 15:31:14;;;;;;;7.70;6.60;;;;;;;;;;5015221;28;20030;-52
2021/05/19 15:33:40;;;;;;;18.40;6.50;;;;;;;;;;5015245;28;20084;-52
2021/05/19 15:36:08;;;;;;;7.63;5.67;;;;;;;;;;5015003;28;20048;-52
2021/05/19 15:38:36;;;;;;;7.43;5.70;;;;;;;;;;5015092;28;20153;-52
2021/05/19 15:41:06;;;;;;;8.53;5.93;;;;;;;;;;5014885;28;20497;-52
2021/05/19 15:43:33;;;;;;;7.40;5.77;;;;;;;;;;5015688;28;20025;-52
2021/05/19 15:45:59;;;;;;;7.90;5.73;;;;;;;;;;5016674;28;20064;-52
2021/05/19 15:48:26;;;;;;;7.47;5.63;;;;;;;;;;5014846;28;20101;-52
2021/05/19 15:50:53;;;;;;;8.73;6.73;;;;;;;;;;5014708;28;20034;-52
2021/05/19 15:53:20;;;;;;;7.63;6.17;;;;;;;;;;5014853;28;20054;-52
2021/05/19 15:55:47;;;;;;;7.57;6.40;;;;;;;;;;5006668;28;20040;-52